createdAt,value
2019-02-14T00:01:52.539Z,0.83
2019-02-14T00:04:20.371Z,0.99
2019-02-14T00:06:48.336Z,1.13
2019-02-14T00:09:16.599Z,1.19
2019-02-14T00:11:44.494Z,1.10
2019-02-14T00:14:12.364Z,1.04
2019-02-14T00:16:40.221Z,1.04
2019-02-14T00:19:08.127Z,0.94
2019-02-14T00:21:36.019Z,0.85
2019-02-14T00:24:03.887Z,0.77
2019-02-14T00:26:31.725Z,0.69
2019-02-14T00:28:59.639Z,0.59
2019-02-14T00:31:27.492Z,0.48
2019-02-14T00:33:55.386Z,0.32
2019-02-14T00:36:23.274Z,0.29
2019-02-14T00:38:51.158Z,0.31
2019-02-14T00:41:19.008Z,0.31
2019-02-14T00:43:46.917Z,0.18
2019-02-14T00:46:14.992Z,0.10
2019-02-14T00:48:42.819Z,0.11
2019-02-14T00:51:10.695Z,0.14
2019-02-14T00:53:38.811Z,0.14
2019-02-14T00:56:06.624Z,0.15
2019-02-14T00:58:34.490Z,0.20
2019-02-14T01:01:02.600Z,0.28
2019-02-14T01:03:30.438Z,0.34
2019-02-14T01:05:58.390Z,0.55
2019-02-14T01:08:26.278Z,0.37
2019-02-14T01:10:54.155Z,0.31
2019-02-14T01:13:23.079Z,0.27
2019-02-14T01:15:51.394Z,0.34
2019-02-14T01:18:19.228Z,0.56
2019-02-14T01:20:47.072Z,0.64
2019-02-14T01:23:15.247Z,0.67
2019-02-14T01:25:43.116Z,0.52
2019-02-14T01:28:10.948Z,0.47
2019-02-14T01:30:38.823Z,0.50
2019-02-14T01:33:06.683Z,0.62
2019-02-14T01:35:41.781Z,0.54
2019-02-14T01:38:04.599Z,0.44
2019-02-14T01:40:32.473Z,0.29
2019-02-14T01:43:00.350Z,0.31
2019-02-14T01:45:28.254Z,0.31
2019-02-14T01:47:56.049Z,0.20
2019-02-14T01:50:23.880Z,0.18
2019-02-14T01:52:51.728Z,0.19
2019-02-14T01:55:19.649Z,0.11
2019-02-14T01:57:47.504Z,0.13
2019-02-14T02:00:16.673Z,0.03
2019-02-14T02:02:44.516Z,0.06
2019-02-14T02:05:12.407Z,0.00
2019-02-14T02:07:40.602Z,-0.09
2019-02-14T02:10:10.398Z,-0.14
2019-02-14T02:12:38.396Z,-0.16
2019-02-14T02:15:09.358Z,-0.15
2019-02-14T02:17:38.120Z,-0.24
2019-02-14T02:20:06.942Z,-0.26
2019-02-14T02:22:34.878Z,-0.28
2019-02-14T02:25:03.860Z,-0.08
2019-02-14T02:27:31.690Z,0.00
2019-02-14T02:29:59.560Z,-0.05
2019-02-14T02:32:27.476Z,-0.15
2019-02-14T02:34:55.307Z,-0.24
2019-02-14T02:37:23.153Z,-0.20
2019-02-14T02:39:50.978Z,-0.18
2019-02-14T02:42:18.819Z,-0.13
2019-02-14T02:44:48.564Z,0.08
2019-02-14T02:47:16.583Z,0.15
2019-02-14T02:49:47.236Z,0.12
2019-02-14T02:52:16.912Z,0.15
2019-02-14T02:54:44.754Z,0.12
2019-02-14T02:57:12.608Z,0.06
2019-02-14T02:59:40.475Z,0.00
2019-02-14T03:02:08.585Z,-0.02
2019-02-14T03:04:36.395Z,-0.10
2019-02-14T03:07:04.423Z,-0.18
2019-02-14T03:09:32.355Z,-0.20
2019-02-14T03:12:00.190Z,-0.22
2019-02-14T03:14:28.031Z,-0.25
2019-02-14T03:16:55.896Z,-0.26
2019-02-14T03:19:23.692Z,-0.28
2019-02-14T03:21:51.548Z,-0.31
2019-02-14T03:24:19.356Z,-0.36
2019-02-14T03:26:47.223Z,-0.55
2019-02-14T03:29:15.386Z,-0.52
2019-02-14T03:31:43.252Z,-0.68
2019-02-14T03:34:11.174Z,-0.74
2019-02-14T03:36:39.078Z,-0.60
2019-02-14T03:39:06.919Z,-0.62
2019-02-14T03:41:34.789Z,-0.64
2019-02-14T03:44:02.687Z,-0.56
2019-02-14T03:46:30.567Z,-0.28
2019-02-14T03:48:58.377Z,-0.24
2019-02-14T03:51:26.247Z,-0.25
2019-02-14T03:53:54.136Z,-0.17
2019-02-14T03:56:22.076Z,-0.16
2019-02-14T03:58:49.902Z,-0.21
2019-02-14T04:01:17.748Z,-0.40
2019-02-14T04:03:45.595Z,-0.50
2019-02-14T04:06:13.406Z,-0.51
2019-02-14T04:08:41.315Z,-0.53
2019-02-14T04:11:09.152Z,-0.59
2019-02-14T04:13:37.006Z,-0.56
2019-02-14T04:16:04.873Z,-0.62
2019-02-14T04:18:32.749Z,-0.65
2019-02-14T04:21:03.288Z,-0.73
2019-02-14T04:23:31.152Z,-0.76
2019-02-14T04:25:58.975Z,-0.74
2019-02-14T04:28:26.843Z,-0.75
2019-02-14T04:30:54.676Z,-0.85
2019-02-14T04:33:22.529Z,-0.81
2019-02-14T04:35:50.338Z,-0.73
2019-02-14T04:38:18.530Z,-0.81
2019-02-14T04:40:46.384Z,-0.81
2019-02-14T04:43:14.213Z,-0.79
2019-02-14T04:45:42.067Z,-0.85
2019-02-14T04:48:09.929Z,-0.87
2019-02-14T04:50:37.802Z,-0.90
2019-02-14T04:53:05.688Z,-0.84
2019-02-14T04:55:36.080Z,-0.85
2019-02-14T04:58:03.959Z,-0.86
2019-02-14T05:00:31.843Z,-0.85
2019-02-14T05:02:59.652Z,-0.85
2019-02-14T05:05:27.488Z,-0.91
2019-02-14T05:07:55.464Z,-0.81
2019-02-14T05:10:23.326Z,-0.53
2019-02-14T05:12:51.169Z,-0.55
2019-02-14T05:15:19.090Z,-0.42
2019-02-14T05:17:46.946Z,-0.14
2019-02-14T05:20:14.755Z,-0.06
2019-02-14T05:22:42.643Z,-0.08
2019-02-14T05:25:10.770Z,-0.11
2019-02-14T05:27:38.586Z,-0.20
2019-02-14T05:30:09.226Z,-0.15
2019-02-14T05:32:37.080Z,-0.23
2019-02-14T05:35:05.435Z,-0.16
2019-02-14T05:37:33.377Z,-0.16
2019-02-14T05:40:01.255Z,-0.19
2019-02-14T05:42:29.082Z,-0.34
2019-02-14T05:44:56.950Z,-0.25
2019-02-14T05:47:24.809Z,-0.08
2019-02-14T05:49:54.431Z,-0.15
2019-02-14T05:52:22.356Z,-0.14
2019-02-14T05:54:50.192Z,-0.31
2019-02-14T05:57:18.062Z,-0.24
2019-02-14T05:59:45.898Z,-0.23
2019-02-14T06:02:15.635Z,-0.21
2019-02-14T06:04:43.501Z,-0.20
2019-02-14T06:07:11.387Z,-0.27
2019-02-14T06:09:39.227Z,-0.36
2019-02-14T06:12:07.086Z,-0.39
2019-02-14T06:14:35.191Z,-0.44
2019-02-14T06:17:05.444Z,-0.36
2019-02-14T06:19:33.307Z,-0.30
2019-02-14T06:22:01.159Z,-0.34
2019-02-14T06:24:29.071Z,-0.41
2019-02-14T06:26:56.891Z,-0.42
2019-02-14T06:29:24.740Z,-0.42
2019-02-14T06:31:52.539Z,-0.34
2019-02-14T06:34:20.437Z,-0.42
2019-02-14T06:36:48.296Z,-0.47
2019-02-14T06:39:16.175Z,-0.53
2019-02-14T06:41:44.013Z,-0.49
2019-02-14T06:44:11.891Z,-0.55
2019-02-14T06:46:39.716Z,-0.81
2019-02-14T06:49:07.620Z,-0.76
2019-02-14T06:51:35.462Z,-0.87
2019-02-14T06:54:03.267Z,-0.82
2019-02-14T06:56:31.115Z,-0.54
2019-02-14T06:58:59.014Z,-0.42
2019-02-14T07:01:26.891Z,-0.31
2019-02-14T07:03:54.755Z,-0.28
2019-02-14T07:06:22.596Z,-0.32
2019-02-14T07:08:50.427Z,-0.41
2019-02-14T07:11:18.266Z,-0.18
2019-02-14T07:13:46.117Z,-0.18
2019-02-14T07:16:13.948Z,-0.12
2019-02-14T07:18:41.811Z,0.18
2019-02-14T07:21:09.661Z,0.26
2019-02-14T07:23:37.491Z,0.29
2019-02-14T07:26:05.389Z,0.24
2019-02-14T07:28:34.479Z,0.21
2019-02-14T07:31:02.463Z,0.29
2019-02-14T07:33:30.433Z,0.30
2019-02-14T07:35:58.376Z,0.55
2019-02-14T07:38:26.293Z,0.91
2019-02-14T07:40:54.104Z,1.23
2019-02-14T07:43:21.977Z,1.76
2019-02-14T07:45:49.831Z,2.43
2019-02-14T07:48:17.749Z,2.93
2019-02-14T07:50:45.623Z,3.50
2019-02-14T07:53:13.466Z,4.01
2019-02-14T07:55:41.293Z,4.22
2019-02-14T07:58:09.243Z,4.55
2019-02-14T08:00:37.084Z,4.69
2019-02-14T08:03:04.936Z,4.88
2019-02-14T08:05:32.859Z,5.19
2019-02-14T08:08:01.178Z,5.33
2019-02-14T08:10:29.015Z,5.22
2019-02-14T08:12:56.889Z,5.53
2019-02-14T08:15:24.773Z,5.86
2019-02-14T08:17:52.633Z,6.17
2019-02-14T08:20:20.537Z,6.98
2019-02-14T08:22:48.367Z,8.06
2019-02-14T08:25:16.495Z,9.54
2019-02-14T08:27:44.345Z,11.10
2019-02-14T08:30:13.894Z,12.16
2019-02-14T08:32:41.848Z,13.01
2019-02-14T08:35:09.739Z,14.27
2019-02-14T08:37:45.093Z,15.79
2019-02-14T08:40:11.325Z,17.19
2019-02-14T08:42:39.211Z,18.13
2019-02-14T08:45:08.785Z,18.99
2019-02-14T08:47:36.620Z,19.54
2019-02-14T08:50:05.067Z,19.88
2019-02-14T08:52:33.208Z,19.87
2019-02-14T08:55:01.134Z,19.38
2019-02-14T08:57:29.008Z,19.23
2019-02-14T08:59:56.879Z,19.70
2019-02-14T09:02:27.280Z,20.24
2019-02-14T09:04:55.440Z,20.77
2019-02-14T09:07:23.329Z,21.28
2019-02-14T09:09:51.189Z,21.28
2019-02-14T09:12:19.104Z,21.09
2019-02-14T09:14:46.958Z,21.99
2019-02-14T09:17:14.843Z,22.72
2019-02-14T09:19:42.671Z,23.32
2019-02-14T09:22:10.581Z,23.65
2019-02-14T09:24:38.460Z,24.57
2019-02-14T09:27:06.444Z,25.80
2019-02-14T09:29:34.269Z,26.77
2019-02-14T09:32:02.196Z,27.70
2019-02-14T09:34:30.111Z,28.53
2019-02-14T09:36:57.958Z,29.19
2019-02-14T09:39:25.875Z,29.73
2019-02-14T09:41:53.805Z,29.46
2019-02-14T09:44:21.671Z,29.71
2019-02-14T09:46:49.568Z,30.37
2019-02-14T09:49:17.438Z,30.77
2019-02-14T09:51:45.322Z,30.96
2019-02-14T09:54:13.168Z,31.25
2019-02-14T09:56:41.098Z,31.53
2019-02-14T09:59:09.022Z,32.04
2019-02-14T10:01:36.878Z,31.89
2019-02-14T10:04:04.886Z,31.34
2019-02-14T10:06:36.675Z,30.48
2019-02-14T10:09:05.038Z,31.08
2019-02-14T10:11:32.908Z,31.60
2019-02-14T10:14:00.773Z,30.26
2019-02-14T10:16:28.744Z,31.10
2019-02-14T10:18:56.732Z,31.72
2019-02-14T10:21:24.616Z,31.83
2019-02-14T10:23:52.587Z,31.42
2019-02-14T10:26:20.538Z,29.71
2019-02-14T10:28:48.431Z,28.55
2019-02-14T10:31:16.331Z,28.81
2019-02-14T10:33:44.245Z,27.67
2019-02-14T10:36:12.156Z,27.22
2019-02-14T10:38:40.028Z,28.32
2019-02-14T10:41:07.887Z,27.67
2019-02-14T10:43:35.710Z,27.10
2019-02-14T10:46:03.622Z,28.04
2019-02-14T10:48:31.458Z,28.55
2019-02-14T10:50:59.431Z,28.84
2019-02-14T10:53:27.334Z,29.07
2019-02-14T10:55:55.258Z,29.28
2019-02-14T10:58:23.122Z,29.91
2019-02-14T11:00:50.974Z,30.27
2019-02-14T11:03:19.000Z,29.15
2019-02-14T11:05:46.871Z,29.54
2019-02-14T11:08:14.778Z,29.21
2019-02-14T11:10:42.670Z,28.94
2019-02-14T11:13:10.526Z,28.22
2019-02-14T11:15:38.465Z,27.08
2019-02-14T11:18:06.457Z,25.54
2019-02-14T11:20:34.427Z,24.32
2019-02-14T11:23:02.632Z,22.76
2019-02-14T11:25:32.247Z,22.49
2019-02-14T11:28:00.147Z,21.74
2019-02-14T11:30:28.045Z,21.10
2019-02-14T11:32:55.934Z,20.84
2019-02-14T11:35:23.835Z,20.00
2019-02-14T11:37:51.681Z,19.35
2019-02-14T11:40:19.575Z,19.32
2019-02-14T11:42:47.481Z,18.90
2019-02-14T11:45:17.679Z,18.47
2019-02-14T11:47:45.542Z,17.54
2019-02-14T11:50:13.417Z,17.54
2019-02-14T11:52:41.467Z,17.08
2019-02-14T11:55:09.528Z,16.92
2019-02-14T11:57:37.423Z,16.84
2019-02-14T12:00:09.758Z,16.73
2019-02-14T12:02:38.007Z,16.07
2019-02-14T12:05:06.496Z,16.54
2019-02-14T12:07:34.360Z,16.45
2019-02-14T12:10:02.295Z,16.31
2019-02-14T12:12:30.501Z,16.14
2019-02-14T12:14:58.374Z,16.11
2019-02-14T12:17:26.352Z,16.00
2019-02-14T12:19:54.214Z,16.03
2019-02-14T12:22:22.136Z,15.88
2019-02-14T12:24:50.032Z,15.86
2019-02-14T12:27:17.920Z,15.79
2019-02-14T12:29:45.770Z,15.54
2019-02-14T12:32:13.685Z,15.43
2019-02-14T12:34:41.568Z,15.19
2019-02-14T12:37:09.471Z,15.14
2019-02-14T12:39:37.394Z,15.12
2019-02-14T12:42:05.345Z,14.96
2019-02-14T12:44:33.267Z,14.91
2019-02-14T12:47:01.280Z,14.84
2019-02-14T12:49:29.172Z,14.73
2019-02-14T12:51:57.103Z,14.64
2019-02-14T12:54:25.079Z,14.71
2019-02-14T12:56:53.236Z,14.51
2019-02-14T12:59:21.148Z,14.56
2019-02-14T13:01:49.025Z,14.46
2019-02-14T13:04:17.129Z,14.57
2019-02-14T13:06:45.077Z,14.48
2019-02-14T13:09:20.055Z,14.63
2019-02-14T13:11:44.411Z,14.34
2019-02-14T13:14:12.287Z,14.37
2019-02-14T13:16:40.175Z,14.41
2019-02-14T13:19:08.060Z,14.43
2019-02-14T13:21:35.944Z,14.47
2019-02-14T13:24:03.825Z,14.39
2019-02-14T13:26:31.792Z,14.50
2019-02-14T13:28:59.648Z,14.37
2019-02-14T13:31:31.973Z,14.61
2019-02-14T13:33:57.808Z,14.43
2019-02-14T13:36:25.676Z,14.29
2019-02-14T13:38:53.588Z,14.42
2019-02-14T13:41:30.680Z,14.37
2019-02-14T13:43:51.227Z,14.40
2019-02-14T13:46:19.323Z,14.53
2019-02-14T13:48:47.192Z,14.58
2019-02-14T13:51:15.086Z,14.61
2019-02-14T13:53:43.009Z,14.50
2019-02-14T13:56:10.873Z,14.24
2019-02-14T13:58:38.773Z,14.21
2019-02-14T14:01:06.808Z,14.24
2019-02-14T14:03:35.048Z,14.27
2019-02-14T14:06:02.975Z,14.12
2019-02-14T14:08:30.847Z,14.26
2019-02-14T14:10:58.825Z,14.11
2019-02-14T14:13:26.714Z,13.99
2019-02-14T14:15:54.869Z,13.91
2019-02-14T14:18:22.755Z,13.72
2019-02-14T14:20:50.701Z,13.70
2019-02-14T14:23:19.932Z,13.62
2019-02-14T14:25:47.948Z,13.64
2019-02-14T14:28:15.860Z,13.51
2019-02-14T14:30:43.737Z,13.52
2019-02-14T14:33:11.612Z,13.58
2019-02-14T14:35:39.489Z,13.58
2019-02-14T14:38:07.383Z,13.50
2019-02-14T14:40:35.307Z,13.56
2019-02-14T14:43:32.076Z,13.63
2019-02-14T14:46:28.641Z,13.62
2019-02-14T14:48:56.548Z,13.34
2019-02-14T14:51:24.611Z,13.30
2019-02-14T14:53:52.439Z,13.37
2019-02-14T14:56:20.367Z,13.37
2019-02-14T14:58:52.854Z,13.12
2019-02-14T15:01:20.744Z,13.12
2019-02-14T15:03:48.663Z,13.12
2019-02-14T15:06:16.530Z,13.27
2019-02-14T15:08:44.520Z,13.04
2019-02-14T15:11:12.429Z,13.16
2019-02-14T15:13:40.326Z,13.09
2019-02-14T15:16:08.254Z,12.92
2019-02-14T15:18:36.179Z,12.92
2019-02-14T15:21:04.078Z,12.81
2019-02-14T15:23:32.024Z,12.85
2019-02-14T15:25:59.913Z,12.75
2019-02-14T15:28:27.784Z,12.69
2019-02-14T15:30:55.696Z,12.60
2019-02-14T15:33:23.626Z,12.68
2019-02-14T15:35:51.536Z,12.77
2019-02-14T15:38:19.391Z,12.63
2019-02-14T15:40:47.309Z,12.43
2019-02-14T15:43:15.145Z,12.43
2019-02-14T15:45:43.049Z,12.29
2019-02-14T15:48:12.988Z,12.30
2019-02-14T15:50:41.127Z,12.16
2019-02-14T15:53:09.012Z,12.20
2019-02-14T15:55:38.841Z,12.20
2019-02-14T15:58:09.078Z,12.11
2019-02-14T16:00:36.585Z,12.11
2019-02-14T16:03:04.510Z,11.98
2019-02-14T16:05:34.874Z,11.97
2019-02-14T16:08:04.736Z,11.95
2019-02-14T16:10:34.651Z,11.98
2019-02-14T16:13:02.641Z,11.84
2019-02-14T16:15:31.088Z,11.95
2019-02-14T16:18:01.648Z,11.98
2019-02-14T16:20:29.749Z,11.74
2019-02-14T16:22:57.698Z,11.50
2019-02-14T16:25:26.391Z,11.54
2019-02-14T16:27:55.563Z,11.48
2019-02-14T16:30:23.492Z,11.43
2019-02-14T16:32:51.412Z,11.33
2019-02-14T16:35:19.454Z,11.29
2019-02-14T16:37:49.957Z,11.44
2019-02-14T16:40:17.227Z,11.23
2019-02-14T16:42:45.177Z,11.20
2019-02-14T16:45:13.080Z,10.99
2019-02-14T16:47:40.993Z,10.73
2019-02-14T16:50:09.011Z,10.68
2019-02-14T16:52:36.942Z,10.40
2019-02-14T16:55:05.106Z,10.00
2019-02-14T16:57:33.082Z,9.59
2019-02-14T17:00:00.912Z,9.56
2019-02-14T17:02:28.915Z,9.33
2019-02-14T17:04:57.898Z,9.10
2019-02-14T17:07:25.829Z,8.98
2019-02-14T17:09:56.290Z,9.03
2019-02-14T17:12:24.202Z,9.03
2019-02-14T17:14:52.105Z,9.01
2019-02-14T17:17:27.722Z,9.16
2019-02-14T17:19:50.183Z,9.13
2019-02-14T17:22:18.134Z,9.02
2019-02-14T17:24:46.058Z,8.95
2019-02-14T17:27:14.106Z,8.83
2019-02-14T17:29:42.062Z,8.83
2019-02-14T17:32:09.975Z,8.57
2019-02-14T17:34:37.883Z,8.28
2019-02-14T17:37:05.772Z,7.96
2019-02-14T17:39:33.672Z,7.78
2019-02-14T17:42:01.577Z,7.77
2019-02-14T17:44:29.454Z,7.49
2019-02-14T17:46:57.413Z,7.25
2019-02-14T17:49:25.297Z,7.12
2019-02-14T17:51:53.143Z,6.98
2019-02-14T17:54:21.089Z,6.99
2019-02-14T17:56:48.969Z,7.02
2019-02-14T17:59:16.878Z,6.87
2019-02-14T18:01:44.803Z,6.83
2019-02-14T18:04:12.749Z,6.76
2019-02-14T18:06:40.647Z,6.77
2019-02-14T18:09:08.910Z,6.75
2019-02-14T18:11:36.841Z,6.94
2019-02-14T18:14:04.734Z,6.97
2019-02-14T18:16:32.678Z,6.88
2019-02-14T18:19:01.080Z,6.71
2019-02-14T18:21:28.990Z,6.77
2019-02-14T18:23:57.052Z,6.77
2019-02-14T18:26:25.354Z,6.61
2019-02-14T18:28:53.283Z,6.40
2019-02-14T18:31:21.205Z,6.09
2019-02-14T18:33:49.157Z,5.94
2019-02-14T18:36:17.069Z,5.80
2019-02-14T18:38:45.265Z,5.73
2019-02-14T18:41:13.175Z,5.64
2019-02-14T18:43:41.035Z,5.67
2019-02-14T18:46:08.962Z,5.53
2019-02-14T18:48:36.934Z,5.50
2019-02-14T18:51:05.026Z,5.53
2019-02-14T18:53:33.033Z,5.43
2019-02-14T18:56:04.297Z,5.42
2019-02-14T18:58:32.163Z,5.44
2019-02-14T19:01:00.095Z,5.50
2019-02-14T19:03:28.015Z,5.39
2019-02-14T19:05:55.912Z,5.50
2019-02-14T19:08:23.811Z,5.48
2019-02-14T19:10:52.695Z,5.34
2019-02-14T19:13:20.874Z,5.39
2019-02-14T19:15:48.797Z,5.38
2019-02-14T19:18:16.680Z,5.35
2019-02-14T19:20:44.681Z,5.30
2019-02-14T19:23:23.294Z,5.27
2019-02-14T19:25:42.529Z,5.16
2019-02-14T19:28:10.452Z,5.32
2019-02-14T19:30:38.387Z,5.31
2019-02-14T19:33:06.402Z,5.25
2019-02-14T19:35:34.275Z,5.09
2019-02-14T19:38:02.468Z,5.19
2019-02-14T19:40:30.371Z,5.23
2019-02-14T19:42:58.351Z,5.19
2019-02-14T19:45:36.051Z,5.19
2019-02-14T19:47:56.097Z,5.34
2019-02-14T19:50:24.013Z,5.47
2019-02-14T19:52:52.046Z,5.52
2019-02-14T19:55:19.980Z,5.51
2019-02-14T19:57:47.966Z,5.57
2019-02-14T20:00:15.988Z,5.58
2019-02-14T20:02:43.923Z,5.62
2019-02-14T20:05:11.848Z,5.62
2019-02-14T20:07:39.879Z,5.69
2019-02-14T20:10:09.676Z,5.68
2019-02-14T20:12:37.603Z,5.64
2019-02-14T20:15:09.016Z,5.73
2019-02-14T20:17:36.944Z,5.69
2019-02-14T20:20:06.306Z,5.66
2019-02-14T20:22:34.223Z,5.63
2019-02-14T20:25:03.495Z,5.68
2019-02-14T20:27:31.389Z,5.52
2019-02-14T20:29:59.267Z,5.52
2019-02-14T20:32:27.221Z,5.60
2019-02-14T20:34:55.150Z,5.73
2019-02-14T20:37:23.033Z,5.74
2019-02-14T20:39:50.986Z,5.81
2019-02-14T20:42:18.885Z,5.77
2019-02-14T20:44:47.045Z,5.75
2019-02-14T20:47:14.936Z,5.84
2019-02-14T20:49:43.247Z,5.71
2019-02-14T20:52:11.199Z,5.68
2019-02-14T20:54:39.126Z,5.72
2019-02-14T20:57:07.016Z,5.69
2019-02-14T20:59:35.011Z,5.64
2019-02-14T21:02:04.084Z,5.62
2019-02-14T21:04:32.134Z,5.55
2019-02-14T21:07:00.034Z,5.49
2019-02-14T21:09:27.985Z,5.47
2019-02-14T21:11:55.882Z,5.47
2019-02-14T21:14:23.797Z,5.49
2019-02-14T21:16:51.727Z,5.42
2019-02-14T21:19:19.614Z,5.52
2019-02-14T21:21:47.515Z,5.56
2019-02-14T21:24:15.731Z,5.59
2019-02-14T21:26:43.726Z,5.58
2019-02-14T21:29:11.834Z,5.55
2019-02-14T21:31:39.760Z,5.54
2019-02-14T21:34:07.655Z,5.51
2019-02-14T21:36:35.600Z,5.47
2019-02-14T21:39:04.618Z,5.35
2019-02-14T21:41:32.594Z,5.17
2019-02-14T21:44:00.682Z,5.08
2019-02-14T21:46:28.883Z,4.98
2019-02-14T21:48:56.732Z,5.16
2019-02-14T21:51:24.790Z,5.20
2019-02-14T21:53:52.672Z,5.23
2019-02-14T21:56:20.614Z,5.21
2019-02-14T21:58:48.752Z,5.18
2019-02-14T22:01:18.861Z,5.23
2019-02-14T22:03:47.054Z,5.21
2019-02-14T22:06:14.895Z,5.08
2019-02-14T22:08:43.031Z,4.98
2019-02-14T22:11:10.925Z,4.90
2019-02-14T22:13:39.084Z,4.78
2019-02-14T22:16:07.111Z,4.67
2019-02-14T22:18:35.035Z,4.59
2019-02-14T22:21:03.010Z,4.50
2019-02-14T22:23:31.097Z,4.49
2019-02-14T22:25:59.047Z,4.45
2019-02-14T22:28:26.955Z,4.42
2019-02-14T22:30:54.915Z,4.26
2019-02-14T22:33:22.818Z,4.22
2019-02-14T22:35:50.734Z,4.11
2019-02-14T22:38:18.598Z,4.18
2019-02-14T22:40:47.438Z,4.22
2019-02-14T22:43:15.410Z,4.04
2019-02-14T22:45:43.298Z,4.08
2019-02-14T22:48:11.241Z,4.14
2019-02-14T22:50:39.129Z,4.15
2019-02-14T22:53:06.991Z,4.19
2019-02-14T22:55:34.885Z,4.18
2019-02-14T22:58:02.740Z,4.17
2019-02-14T23:00:46.773Z,4.14
2019-02-14T23:03:14.995Z,4.09
2019-02-14T23:05:43.050Z,4.03
2019-02-14T23:08:10.835Z,4.04
2019-02-14T23:10:39.194Z,3.82
2019-02-14T23:13:07.056Z,3.62
2019-02-14T23:15:34.846Z,3.55
2019-02-14T23:18:02.976Z,3.61
2019-02-14T23:20:30.776Z,3.67
2019-02-14T23:22:58.612Z,3.81
2019-02-14T23:25:26.406Z,3.82
2019-02-14T23:27:54.229Z,3.90
2019-02-14T23:30:22.040Z,3.81
2019-02-14T23:32:49.856Z,3.77
2019-02-14T23:35:17.646Z,3.85
2019-02-14T23:37:45.444Z,3.85
2019-02-14T23:40:13.254Z,3.72
2019-02-14T23:42:41.065Z,3.77
2019-02-14T23:45:09.209Z,3.93
2019-02-14T23:47:37.021Z,3.95
2019-02-14T23:50:04.887Z,4.03
2019-02-14T23:52:32.697Z,4.11
2019-02-14T23:55:00.491Z,4.34
2019-02-14T23:57:28.303Z,4.60
2019-02-14T23:59:56.089Z,4.84
